createdAt,value
2022-12-31T00:01:38.434Z,98558.09
2022-12-31T00:04:08.103Z,98549.00
2022-12-31T00:06:40.297Z,98556.97
2022-12-31T00:09:10.814Z,98554.66
2022-12-31T00:11:41.563Z,98555.84
2022-12-31T00:14:11.192Z,98560.56
2022-12-31T00:16:43.828Z,98558.38
2022-12-31T00:19:14.994Z,98563.94
2022-12-31T00:21:47.616Z,98560.06
2022-12-31T00:24:17.191Z,98574.66
2022-12-31T00:26:47.011Z,98571.41
2022-12-31T00:29:16.533Z,98580.91
2022-12-31T00:31:46.098Z,98583.94
2022-12-31T00:34:15.681Z,98578.41
2022-12-31T00:36:47.793Z,98573.41
2022-12-31T00:39:17.347Z,98586.16
2022-12-31T00:41:46.916Z,98577.56
2022-12-31T00:44:16.579Z,98580.28
2022-12-31T00:46:46.166Z,98566.84
2022-12-31T00:49:15.727Z,98578.50
2022-12-31T00:51:48.244Z,98592.44
2022-12-31T00:54:17.963Z,98595.25
2022-12-31T00:56:47.518Z,98569.28
2022-12-31T00:59:17.071Z,98575.72
2022-12-31T01:01:46.971Z,98578.13
2022-12-31T01:04:19.566Z,98582.59
2022-12-31T01:06:51.869Z,98580.34
2022-12-31T01:09:21.768Z,98578.09
2022-12-31T01:11:53.232Z,98575.75
2022-12-31T01:14:23.095Z,98578.22
2022-12-31T01:16:54.292Z,98574.84
2022-12-31T01:19:27.041Z,98581.72
2022-12-31T01:22:00.256Z,98595.06
2022-12-31T01:24:29.845Z,98592.97
2022-12-31T01:27:00.153Z,98602.44
2022-12-31T01:29:29.934Z,98624.44
2022-12-31T01:31:59.568Z,98620.41
2022-12-31T01:34:30.500Z,98607.19
2022-12-31T01:37:02.582Z,98610.09
2022-12-31T01:39:32.154Z,98614.78
2022-12-31T01:42:02.598Z,98624.19
2022-12-31T01:44:59.144Z,98633.16
2022-12-31T01:47:38.182Z,98641.94
2022-12-31T01:50:14.556Z,98638.59
2022-12-31T01:52:49.555Z,98641.47
2022-12-31T01:55:22.936Z,98637.63
2022-12-31T01:57:56.802Z,98633.69
2022-12-31T02:00:26.435Z,98622.53
2022-12-31T02:02:56.136Z,98616.13
2022-12-31T02:05:32.712Z,98621.69
2022-12-31T02:08:05.906Z,98617.91
2022-12-31T02:10:35.554Z,98619.91
2022-12-31T02:13:05.569Z,98605.44
2022-12-31T02:15:44.577Z,98610.84
2022-12-31T02:18:22.732Z,98620.63
2022-12-31T02:21:35.864Z,98623.38
2022-12-31T02:24:27.749Z,98609.38
2022-12-31T02:27:02.193Z,98606.69
2022-12-31T02:30:01.726Z,98598.22
2022-12-31T02:32:44.380Z,98594.56
2022-12-31T02:35:22.576Z,98582.81
2022-12-31T02:37:56.831Z,98581.94
2022-12-31T02:40:26.607Z,98583.31
2022-12-31T02:42:56.129Z,98575.63
2022-12-31T02:45:31.942Z,98581.81
2022-12-31T02:48:13.440Z,98583.25
2022-12-31T02:50:55.675Z,98572.59
2022-12-31T02:53:48.871Z,98571.56
2022-12-31T02:56:25.246Z,98567.66
2022-12-31T02:59:17.055Z,98581.34
2022-12-31T03:02:06.134Z,98577.22
2022-12-31T03:04:38.501Z,98573.91
2022-12-31T03:07:11.519Z,98575.44
2022-12-31T03:09:41.750Z,98575.84
2022-12-31T03:12:26.150Z,98573.34
2022-12-31T03:14:56.380Z,98583.38
2022-12-31T03:17:26.279Z,98585.00
2022-12-31T03:20:11.000Z,98582.28
2022-12-31T03:22:45.051Z,98594.72
2022-12-31T03:25:29.402Z,98592.34
2022-12-31T03:27:59.273Z,98584.84
2022-12-31T03:30:29.767Z,98600.84
2022-12-31T03:32:59.689Z,98577.44
2022-12-31T03:35:34.528Z,98578.81
2022-12-31T03:38:04.876Z,98583.72
2022-12-31T03:40:36.099Z,98569.63
2022-12-31T03:43:05.625Z,98557.09
2022-12-31T03:45:35.506Z,98548.44
2022-12-31T03:48:06.805Z,98553.97
2022-12-31T03:50:39.050Z,98552.81
2022-12-31T03:53:09.156Z,98537.72
2022-12-31T03:55:40.065Z,98534.88
2022-12-31T03:58:10.017Z,98535.56
2022-12-31T04:00:39.683Z,98526.50
2022-12-31T04:03:09.300Z,98529.63
2022-12-31T04:05:41.488Z,98537.31
2022-12-31T04:08:11.055Z,98543.13
2022-12-31T04:10:40.670Z,98561.63
2022-12-31T04:13:10.198Z,98565.84
2022-12-31T04:15:39.746Z,98553.53
2022-12-31T04:18:09.343Z,98576.50
2022-12-31T04:20:41.450Z,98565.91
2022-12-31T04:23:11.074Z,98554.06
2022-12-31T04:25:40.629Z,98540.41
2022-12-31T04:28:10.595Z,98527.75
2022-12-31T04:30:40.119Z,98541.22
2022-12-31T04:33:09.663Z,98537.88
2022-12-31T04:35:41.755Z,98523.69
2022-12-31T04:38:11.362Z,98527.34
2022-12-31T04:41:01.351Z,98510.84
2022-12-31T04:43:30.930Z,98516.13
2022-12-31T04:46:00.475Z,98501.25
2022-12-31T04:48:30.043Z,98501.78
2022-12-31T04:51:02.234Z,98504.16
2022-12-31T04:53:32.129Z,98491.34
2022-12-31T04:56:01.723Z,98485.78
2022-12-31T04:58:31.541Z,98476.44
2022-12-31T05:01:01.337Z,98466.66
2022-12-31T05:03:31.548Z,98477.31
2022-12-31T05:06:07.672Z,98465.56
2022-12-31T05:08:37.348Z,98459.75
2022-12-31T05:11:06.923Z,98472.97
2022-12-31T05:13:36.756Z,98458.44
2022-12-31T05:16:07.599Z,98475.16
2022-12-31T05:18:37.704Z,98459.22
2022-12-31T05:21:10.049Z,98453.56
2022-12-31T05:23:40.445Z,98453.69
2022-12-31T05:26:10.099Z,98432.84
2022-12-31T05:28:39.732Z,98427.44
2022-12-31T05:31:09.327Z,98431.16
2022-12-31T05:33:38.936Z,98414.59
2022-12-31T05:36:11.177Z,98425.47
2022-12-31T05:38:40.797Z,98427.47
2022-12-31T05:41:11.680Z,98432.72
2022-12-31T05:43:41.209Z,98437.28
2022-12-31T05:46:11.485Z,98446.63
2022-12-31T05:48:43.855Z,98439.19
2022-12-31T05:51:15.985Z,98459.66
2022-12-31T05:53:45.587Z,98456.44
2022-12-31T05:56:15.205Z,98451.88
2022-12-31T05:58:44.751Z,98453.97
2022-12-31T06:01:14.355Z,98465.84
2022-12-31T06:03:44.126Z,98466.91
2022-12-31T06:06:16.314Z,98440.78
2022-12-31T06:08:45.844Z,98439.34
2022-12-31T06:11:15.360Z,98454.81
2022-12-31T06:13:45.814Z,98442.06
2022-12-31T06:16:15.665Z,98436.22
2022-12-31T06:18:49.340Z,98459.13
2022-12-31T06:21:22.631Z,98445.75
2022-12-31T06:23:52.270Z,98452.13
2022-12-31T06:26:21.949Z,98449.19
2022-12-31T06:28:51.490Z,98448.50
2022-12-31T06:31:21.080Z,98457.00
2022-12-31T06:33:50.742Z,98460.22
2022-12-31T06:36:23.025Z,98454.00
2022-12-31T06:38:52.993Z,98454.63
2022-12-31T06:41:22.697Z,98441.81
2022-12-31T06:43:52.277Z,98452.84
2022-12-31T06:46:21.849Z,98462.44
2022-12-31T06:48:51.581Z,98467.13
2022-12-31T06:51:24.622Z,98488.16
2022-12-31T06:53:54.819Z,98487.56
2022-12-31T06:56:33.867Z,98476.09
2022-12-31T06:59:05.619Z,98459.59
2022-12-31T07:01:51.962Z,98483.75
2022-12-31T07:05:06.555Z,98474.41
2022-12-31T07:07:46.573Z,98472.44
2022-12-31T07:10:29.195Z,98483.84
2022-12-31T07:13:16.882Z,98472.06
2022-12-31T07:16:02.143Z,98476.88
2022-12-31T07:18:39.149Z,98490.50
2022-12-31T07:21:14.414Z,98490.00
2022-12-31T07:23:47.172Z,98506.28
2022-12-31T07:26:26.499Z,98508.16
2022-12-31T07:29:07.919Z,98490.69
2022-12-31T07:31:54.246Z,98493.50
2022-12-31T07:34:28.128Z,98499.38
2022-12-31T07:37:05.604Z,98486.34
2022-12-31T07:39:45.713Z,98492.31
2022-12-31T07:42:23.904Z,98517.97
2022-12-31T07:45:05.762Z,98499.63
2022-12-31T07:47:36.324Z,98516.34
2022-12-31T07:50:07.179Z,98524.78
2022-12-31T07:52:37.727Z,98528.81
2022-12-31T07:55:10.938Z,98525.13
2022-12-31T07:57:49.150Z,98534.25
2022-12-31T08:00:19.609Z,98509.94
2022-12-31T08:03:17.452Z,98531.81
2022-12-31T08:05:53.746Z,98526.34
2022-12-31T08:08:35.602Z,98527.72
2022-12-31T08:11:20.307Z,98531.16
2022-12-31T08:13:50.663Z,98531.16
2022-12-31T08:16:21.920Z,98534.88
2022-12-31T08:18:52.273Z,98550.94
2022-12-31T08:21:39.559Z,98552.38
2022-12-31T08:24:20.506Z,98558.22
2022-12-31T08:27:02.424Z,98572.34
2022-12-31T08:29:38.822Z,98579.13
2022-12-31T08:32:15.412Z,98584.00
2022-12-31T08:34:55.920Z,98585.19
2022-12-31T08:37:31.761Z,98597.13
2022-12-31T08:40:09.628Z,98588.69
2022-12-31T08:42:52.917Z,98586.09
2022-12-31T08:45:28.661Z,98596.50
2022-12-31T08:48:03.327Z,98595.97
2022-12-31T08:50:34.126Z,98581.75
2022-12-31T08:53:04.475Z,98574.22
2022-12-31T08:55:34.638Z,98581.34
2022-12-31T08:58:21.746Z,98593.38
2022-12-31T09:00:56.100Z,98600.19
2022-12-31T09:03:38.222Z,98570.94
2022-12-31T09:06:16.869Z,98582.69
2022-12-31T09:08:53.908Z,98598.16
2022-12-31T09:11:28.998Z,98580.91
2022-12-31T09:14:18.266Z,98590.19
2022-12-31T09:16:55.332Z,98591.00
2022-12-31T09:19:25.112Z,98608.38
2022-12-31T09:21:55.283Z,98610.00
2022-12-31T09:24:25.537Z,98618.13
2022-12-31T09:27:05.398Z,98623.81
2022-12-31T09:29:50.285Z,98627.56
2022-12-31T09:32:27.985Z,98621.75
2022-12-31T09:35:04.080Z,98634.56
2022-12-31T09:37:46.213Z,98639.28
2022-12-31T09:40:41.233Z,98639.97
2022-12-31T09:43:27.598Z,98632.97
2022-12-31T09:46:15.024Z,98660.13
2022-12-31T09:49:15.765Z,98664.72
2022-12-31T09:51:50.916Z,98657.56
2022-12-31T09:54:36.017Z,98659.84
2022-12-31T09:57:21.653Z,98672.56
2022-12-31T09:59:58.199Z,98667.47
2022-12-31T10:02:58.836Z,98667.97
2022-12-31T10:05:51.648Z,98678.19
2022-12-31T10:08:39.559Z,98644.78
2022-12-31T10:11:17.666Z,98665.56
2022-12-31T10:14:00.624Z,98657.09
2022-12-31T10:17:02.786Z,98657.91
2022-12-31T10:20:01.588Z,98671.06
2022-12-31T10:22:49.615Z,98668.47
2022-12-31T10:25:38.386Z,98664.41
2022-12-31T10:28:20.949Z,98659.34
2022-12-31T10:31:01.188Z,98675.94
2022-12-31T10:33:44.327Z,98662.63
2022-12-31T10:36:22.469Z,98659.84
2022-12-31T10:39:08.890Z,98668.97
2022-12-31T10:42:22.355Z,98662.47
2022-12-31T10:45:30.437Z,98661.38
2022-12-31T10:48:27.242Z,98691.94
2022-12-31T10:51:11.912Z,98654.69
2022-12-31T10:54:04.573Z,98660.84
2022-12-31T10:57:07.061Z,98666.06
2022-12-31T11:00:10.390Z,98667.53
2022-12-31T11:03:12.393Z,98661.69
2022-12-31T11:06:03.502Z,98644.28
2022-12-31T11:08:56.540Z,98655.50
2022-12-31T11:11:35.418Z,98660.38
2022-12-31T11:14:35.772Z,98669.31
2022-12-31T11:17:19.019Z,98634.34
2022-12-31T11:20:00.223Z,98685.25
2022-12-31T11:22:56.904Z,98677.63
2022-12-31T11:25:34.787Z,98689.81
2022-12-31T11:28:21.342Z,98690.47
2022-12-31T11:31:13.853Z,98691.47
2022-12-31T11:33:59.690Z,98685.56
2022-12-31T11:36:44.564Z,98685.91
2022-12-31T11:39:35.280Z,98674.22
2022-12-31T11:42:16.991Z,98658.09
2022-12-31T11:44:52.264Z,98692.09
2022-12-31T11:48:20.616Z,98698.09
2022-12-31T11:50:45.426Z,98701.53
2022-12-31T11:53:28.252Z,98691.47
2022-12-31T11:56:07.640Z,98700.22
2022-12-31T11:58:37.349Z,98687.88
2022-12-31T12:01:12.786Z,98667.69
2022-12-31T12:03:45.138Z,98677.47
2022-12-31T12:06:16.747Z,98687.22
2022-12-31T12:08:47.770Z,98696.63
2022-12-31T12:11:23.253Z,98717.44
2022-12-31T12:13:52.981Z,98704.47
2022-12-31T12:16:24.829Z,98707.38
2022-12-31T12:19:07.214Z,98709.66
2022-12-31T12:21:37.448Z,98715.34
2022-12-31T12:24:16.843Z,98718.25
2022-12-31T12:26:47.172Z,98716.94
2022-12-31T12:29:21.131Z,98706.38
2022-12-31T12:32:01.272Z,98724.94
2022-12-31T12:34:35.543Z,98722.16
2022-12-31T12:37:05.989Z,98722.16
2022-12-31T12:39:37.171Z,98723.47
2022-12-31T12:42:09.864Z,98713.38
2022-12-31T12:44:40.199Z,98715.66
2022-12-31T12:47:14.958Z,98711.13
2022-12-31T12:49:49.611Z,98711.28
2022-12-31T12:52:37.718Z,98712.13
2022-12-31T12:55:18.485Z,98724.44
2022-12-31T12:57:57.424Z,98729.97
2022-12-31T13:00:36.662Z,98738.94
2022-12-31T13:04:07.234Z,98734.41
2022-12-31T13:06:45.623Z,98744.00
2022-12-31T13:09:29.053Z,98729.03
2022-12-31T13:12:08.126Z,98741.53
2022-12-31T13:14:47.433Z,98741.53
2022-12-31T13:17:37.930Z,98753.91
2022-12-31T13:20:16.022Z,98745.13
2022-12-31T13:22:54.707Z,98735.06
2022-12-31T13:25:30.595Z,98742.19
2022-12-31T13:28:02.792Z,98740.56
2022-12-31T13:30:36.117Z,98738.63
2022-12-31T13:33:10.120Z,98725.44
2022-12-31T13:35:45.101Z,98728.84
2022-12-31T13:38:22.711Z,98742.19
2022-12-31T13:40:59.695Z,98761.06
2022-12-31T13:43:39.558Z,98733.88
2022-12-31T13:46:17.284Z,98740.22
2022-12-31T13:48:52.320Z,98740.72
2022-12-31T13:51:29.986Z,98739.59
2022-12-31T13:54:06.381Z,98746.09
2022-12-31T13:56:40.330Z,98744.47
2022-12-31T13:59:19.339Z,98741.25
2022-12-31T14:01:55.527Z,98744.00
2022-12-31T14:04:33.814Z,98756.84
2022-12-31T14:07:09.825Z,98765.91
2022-12-31T14:09:42.521Z,98758.16
2022-12-31T14:12:26.897Z,98759.44
2022-12-31T14:15:05.679Z,98768.22
2022-12-31T14:17:40.345Z,98763.69
2022-12-31T14:20:20.851Z,98770.03
2022-12-31T14:22:58.221Z,98765.81
2022-12-31T14:25:35.689Z,98768.22
2022-12-31T14:28:07.954Z,98766.44
2022-12-31T14:30:42.531Z,98759.94
2022-12-31T14:33:33.892Z,98752.94
2022-12-31T14:36:27.043Z,98751.97
2022-12-31T14:39:17.238Z,98769.53
2022-12-31T14:42:05.699Z,98769.69
2022-12-31T14:44:49.118Z,98767.75
2022-12-31T14:47:33.494Z,98764.50
2022-12-31T14:50:09.099Z,98767.91
2022-12-31T14:52:52.412Z,98768.88
2022-12-31T14:55:26.982Z,98773.44
2022-12-31T15:00:58.594Z,98787.69
2022-12-31T15:03:41.274Z,98780.56
2022-12-31T15:06:31.286Z,98769.97
2022-12-31T15:09:14.074Z,98783.34
2022-12-31T15:12:01.309Z,98776.97
2022-12-31T15:14:52.419Z,98783.19
2022-12-31T15:17:34.889Z,98801.09
2022-12-31T15:20:26.726Z,98815.38
2022-12-31T15:22:57.406Z,98813.75
2022-12-31T15:25:38.344Z,98821.88
2022-12-31T15:28:27.359Z,98790.00
2022-12-31T15:31:05.981Z,98806.22
2022-12-31T15:33:40.446Z,98826.22
2022-12-31T15:36:20.035Z,98823.91
2022-12-31T15:38:50.653Z,98832.94
2022-12-31T15:41:42.927Z,98836.78
2022-12-31T15:44:27.109Z,98835.94
2022-12-31T15:47:05.477Z,98853.72
2022-12-31T15:49:41.094Z,98841.31
2022-12-31T15:52:18.330Z,98855.19
2022-12-31T15:54:50.641Z,98861.69
2022-12-31T15:57:22.355Z,98862.75
2022-12-31T15:59:51.979Z,98824.72
2022-12-31T16:02:28.307Z,98831.66
2022-12-31T16:04:58.675Z,98825.59
2022-12-31T16:07:31.110Z,98817.34
2022-12-31T16:10:05.323Z,98829.19
2022-12-31T16:12:44.550Z,98814.09
2022-12-31T16:15:23.281Z,98834.84
2022-12-31T16:18:07.218Z,98859.44
2022-12-31T16:20:43.180Z,98863.34
2022-12-31T16:23:22.777Z,98856.03
2022-12-31T16:25:53.619Z,98845.31
2022-12-31T16:28:27.074Z,98858.09
2022-12-31T16:31:01.845Z,98859.56
2022-12-31T16:33:34.551Z,98853.56
2022-12-31T16:36:05.302Z,98831.69
2022-12-31T16:38:36.845Z,98829.53
2022-12-31T16:41:20.252Z,98845.09
2022-12-31T16:43:51.240Z,98844.50
2022-12-31T16:46:27.131Z,98844.84
2022-12-31T16:49:02.353Z,98851.97
2022-12-31T16:51:33.957Z,98850.28
2022-12-31T16:54:04.726Z,98836.88
2022-12-31T16:56:37.020Z,98850.63
2022-12-31T16:59:16.435Z,98844.28
2022-12-31T17:01:46.892Z,98825.81
2022-12-31T17:04:21.986Z,98847.25
2022-12-31T17:06:51.611Z,98826.69
2022-12-31T17:09:23.337Z,98845.25
2022-12-31T17:11:55.892Z,98844.38
2022-12-31T17:14:27.403Z,98854.41
2022-12-31T17:17:03.002Z,98840.28
2022-12-31T17:19:45.365Z,98841.38
2022-12-31T17:22:25.835Z,98836.63
2022-12-31T17:25:04.370Z,98869.28
2022-12-31T17:27:34.818Z,98856.47
2022-12-31T17:30:23.369Z,98859.16
2022-12-31T17:32:54.012Z,98874.78
2022-12-31T17:35:34.301Z,98877.16
2022-12-31T17:38:32.447Z,98865.97
2022-12-31T17:41:16.917Z,98884.13
2022-12-31T17:43:46.724Z,98870.50
2022-12-31T17:46:19.297Z,98893.78
2022-12-31T17:48:54.497Z,98884.56
2022-12-31T17:51:26.649Z,98880.00
2022-12-31T17:53:56.335Z,98869.53
2022-12-31T17:56:25.973Z,98871.00
2022-12-31T17:58:57.178Z,98869.25
2022-12-31T18:01:26.976Z,98877.44
2022-12-31T18:03:56.898Z,98873.75
2022-12-31T18:06:29.356Z,98876.25
2022-12-31T18:08:58.904Z,98893.50
2022-12-31T18:11:28.482Z,98890.16
2022-12-31T18:13:58.381Z,98882.38
2022-12-31T18:16:28.105Z,98874.50
2022-12-31T18:19:00.162Z,98908.44
2022-12-31T18:21:34.670Z,98897.69
2022-12-31T18:24:05.742Z,98899.81
2022-12-31T18:26:35.755Z,98892.91
2022-12-31T18:29:16.746Z,98895.44
2022-12-31T18:31:49.361Z,98894.78
2022-12-31T18:34:20.725Z,98890.09
2022-12-31T18:36:53.160Z,98885.63
2022-12-31T18:39:22.698Z,98887.88
2022-12-31T18:41:52.340Z,98892.78
2022-12-31T18:44:21.886Z,98890.81
2022-12-31T18:46:51.461Z,98879.75
2022-12-31T18:49:25.133Z,98870.50
2022-12-31T18:51:57.568Z,98870.63
2022-12-31T18:54:27.129Z,98860.56
2022-12-31T18:56:57.351Z,98862.25
2022-12-31T18:59:27.171Z,98860.41
2022-12-31T19:01:56.953Z,98862.13
2022-12-31T19:04:28.208Z,98845.19
2022-12-31T19:07:00.520Z,98849.84
2022-12-31T19:09:45.242Z,98851.75
2022-12-31T19:12:16.782Z,98846.22
2022-12-31T19:14:46.399Z,98833.34
2022-12-31T19:17:15.936Z,98859.53
2022-12-31T19:19:46.183Z,98837.06
2022-12-31T19:22:19.226Z,98843.13
2022-12-31T19:24:48.797Z,98840.31
2022-12-31T19:27:21.182Z,98833.34
2022-12-31T19:29:50.751Z,98833.78
2022-12-31T19:32:20.321Z,98822.03
2022-12-31T19:34:50.149Z,98826.50
2022-12-31T19:37:22.337Z,98827.44
2022-12-31T19:39:51.867Z,98825.50
2022-12-31T19:42:22.718Z,98832.94
2022-12-31T19:44:52.243Z,98827.22
2022-12-31T19:47:22.076Z,98827.25
2022-12-31T19:49:51.898Z,98829.66
2022-12-31T19:52:24.132Z,98824.09
2022-12-31T19:54:53.736Z,98828.00
2022-12-31T19:57:23.300Z,98814.47
2022-12-31T19:59:52.928Z,98828.06
2022-12-31T20:02:22.829Z,98815.78
2022-12-31T20:04:52.490Z,98820.91
2022-12-31T20:07:27.290Z,98821.75
2022-12-31T20:09:57.016Z,98807.16
2022-12-31T20:12:26.687Z,98816.78
2022-12-31T20:14:56.313Z,98803.88
2022-12-31T20:17:26.081Z,98805.25
2022-12-31T20:19:55.756Z,98796.38
2022-12-31T20:22:27.898Z,98798.19
2022-12-31T20:24:58.310Z,98811.28
2022-12-31T20:27:27.978Z,98815.25
2022-12-31T20:29:57.916Z,98829.69
2022-12-31T20:32:27.600Z,98827.06
2022-12-31T20:34:57.174Z,98827.53
2022-12-31T20:37:29.332Z,98853.06
2022-12-31T20:39:59.985Z,98868.28
2022-12-31T20:42:29.541Z,98876.75
2022-12-31T20:44:59.070Z,98892.59
2022-12-31T20:47:28.697Z,98890.50
2022-12-31T20:50:13.638Z,98873.75
2022-12-31T20:52:46.161Z,98876.38
2022-12-31T20:55:18.175Z,98865.03
2022-12-31T20:57:47.850Z,98891.84
2022-12-31T21:00:18.073Z,98891.91
2022-12-31T21:02:56.293Z,98893.56
2022-12-31T21:05:27.620Z,98875.84
2022-12-31T21:07:59.829Z,98868.25
2022-12-31T21:10:29.436Z,98883.03
2022-12-31T21:12:56.360Z,98886.19
2022-12-31T21:15:26.075Z,98865.59
2022-12-31T21:17:55.731Z,98863.28
2022-12-31T21:20:25.310Z,98883.38
2022-12-31T21:22:55.337Z,98892.78
2022-12-31T21:25:27.478Z,98901.50
2022-12-31T21:27:56.989Z,98892.59
2022-12-31T21:30:26.645Z,98903.28
2022-12-31T21:32:56.177Z,98913.13
2022-12-31T21:35:46.721Z,98932.13
2022-12-31T21:38:15.391Z,98914.66
2022-12-31T21:40:47.839Z,98939.56
2022-12-31T21:43:18.254Z,98933.84
2022-12-31T21:45:48.180Z,98924.88
2022-12-31T21:48:25.111Z,98932.22
2022-12-31T21:50:56.498Z,98938.44
2022-12-31T21:53:34.078Z,98934.66
2022-12-31T21:56:11.700Z,98939.56
2022-12-31T21:58:43.508Z,98931.78
2022-12-31T22:01:31.412Z,98940.19
2022-12-31T22:04:00.996Z,98942.56
2022-12-31T22:06:30.704Z,98922.38
2022-12-31T22:09:00.355Z,98946.13
2022-12-31T22:11:32.544Z,98941.38
2022-12-31T22:14:02.649Z,98940.19
2022-12-31T22:16:32.307Z,98948.63
2022-12-31T22:19:01.948Z,98943.25
2022-12-31T22:21:31.533Z,98947.31
2022-12-31T22:24:03.172Z,98954.25
2022-12-31T22:26:35.305Z,98963.44
2022-12-31T22:29:05.851Z,98971.13
2022-12-31T22:31:35.526Z,98974.09
2022-12-31T22:34:05.488Z,98977.13
2022-12-31T22:36:35.167Z,98984.69
2022-12-31T22:39:04.714Z,98997.25
2022-12-31T22:41:40.012Z,98987.09
2022-12-31T22:44:10.695Z,98991.47
2022-12-31T22:46:40.341Z,98985.06
2022-12-31T22:49:09.887Z,99002.28
2022-12-31T22:51:57.073Z,98983.94
2022-12-31T22:54:29.788Z,98992.91
2022-12-31T22:57:01.981Z,99003.53
2022-12-31T22:59:31.630Z,99003.66
2022-12-31T23:02:01.682Z,99016.41
2022-12-31T23:04:31.495Z,99026.84
2022-12-31T23:07:01.115Z,99009.88
2022-12-31T23:09:43.286Z,99020.06
2022-12-31T23:12:15.411Z,99027.63
2022-12-31T23:14:57.515Z,99025.38
2022-12-31T23:17:42.085Z,99038.28
2022-12-31T23:20:29.265Z,99038.91
2022-12-31T23:23:11.649Z,99059.53
2022-12-31T23:25:43.996Z,99060.63
2022-12-31T23:28:19.053Z,99054.91
2022-12-31T23:30:48.650Z,99066.25
2022-12-31T23:33:20.746Z,99058.41
2022-12-31T23:35:50.658Z,99060.34
2022-12-31T23:38:21.386Z,99057.69
2022-12-31T23:40:50.904Z,99071.78
2022-12-31T23:43:25.058Z,99046.31
2022-12-31T23:45:55.290Z,99041.56
2022-12-31T23:48:24.873Z,99029.38
2022-12-31T23:50:54.647Z,99049.53
2022-12-31T23:53:24.707Z,99036.63
2022-12-31T23:55:55.002Z,99040.31
2022-12-31T23:58:27.196Z,99029.66
